createdAt,value
2017-08-19T00:00:05.980Z,100188
2017-08-19T00:01:04.975Z,100191
2017-08-19T00:02:05.037Z,100194
2017-08-19T00:03:04.944Z,100187
2017-08-19T00:04:06.700Z,100194
2017-08-19T00:05:05.095Z,100197
2017-08-19T00:06:05.263Z,100197
2017-08-19T00:07:06.138Z,100195
2017-08-19T00:08:05.387Z,100197
2017-08-19T00:09:05.362Z,100196
2017-08-19T00:10:05.521Z,100201
2017-08-19T00:11:05.606Z,100195
2017-08-19T00:12:07.706Z,100199
2017-08-19T00:13:05.631Z,100205
2017-08-19T00:14:05.717Z,100201
2017-08-19T00:15:07.454Z,100203
2017-08-19T00:16:05.941Z,100207
2017-08-19T00:17:05.860Z,100203
2017-08-19T00:18:06.103Z,100207
2017-08-19T00:19:07.105Z,100210
2017-08-19T00:20:06.114Z,100209
2017-08-19T00:21:06.121Z,100212
2017-08-19T00:22:06.219Z,100208
2017-08-19T00:23:07.316Z,100217
2017-08-19T00:24:06.587Z,100214
2017-08-19T00:25:08.048Z,100220
2017-08-19T00:26:06.457Z,100214
2017-08-19T00:27:07.498Z,100220
2017-08-19T00:28:06.705Z,100220
2017-08-19T00:29:06.757Z,100225
2017-08-19T00:30:06.935Z,100222
2017-08-19T00:31:06.767Z,100227
2017-08-19T00:32:08.384Z,100225
2017-08-19T00:33:07.834Z,100222
2017-08-19T00:34:06.950Z,100226
2017-08-19T00:35:06.876Z,100226
2017-08-19T00:36:07.056Z,100227
2017-08-19T00:37:08.730Z,100230
2017-08-19T00:38:07.040Z,100228
2017-08-19T00:39:08.102Z,100230
2017-08-19T00:40:07.227Z,100222
2017-08-19T00:41:08.244Z,100228
2017-08-19T00:42:07.454Z,100227
2017-08-19T00:43:09.015Z,100228
2017-08-19T00:44:07.314Z,100218
2017-08-19T00:45:09.093Z,100227
2017-08-19T00:46:07.475Z,100228
2017-08-19T00:47:09.209Z,100227
2017-08-19T00:48:09.578Z,100230
2017-08-19T00:49:07.781Z,100231
2017-08-19T00:50:07.674Z,100234
2017-08-19T00:51:07.815Z,100233
2017-08-19T00:52:09.400Z,100231
2017-08-19T00:53:07.898Z,100235
2017-08-19T00:54:08.022Z,100230
2017-08-19T00:55:08.025Z,100235
2017-08-19T00:56:08.965Z,100232
2017-08-19T00:57:09.739Z,100231
2017-08-19T00:58:08.133Z,100228
2017-08-19T00:59:10.002Z,100228
2017-08-19T01:00:09.355Z,100227
2017-08-19T01:01:08.298Z,100230
2017-08-19T01:02:08.398Z,100228
2017-08-19T01:03:09.366Z,100234
2017-08-19T01:04:10.172Z,100233
2017-08-19T01:05:10.179Z,100238
2017-08-19T01:06:08.612Z,100228
2017-08-19T01:07:10.197Z,100236
2017-08-19T01:08:09.543Z,100235
2017-08-19T01:09:08.612Z,100233
2017-08-19T01:10:08.753Z,100230
2017-08-19T01:11:09.672Z,100234
2017-08-19T01:12:10.757Z,100234
2017-08-19T01:13:09.807Z,100234
2017-08-19T01:14:10.679Z,100236
2017-08-19T01:15:10.674Z,100239
2017-08-19T01:16:10.132Z,100242
2017-08-19T01:17:09.025Z,100238
2017-08-19T01:18:09.361Z,100242
2017-08-19T01:19:09.281Z,100238
2017-08-19T01:20:09.895Z,100241
2017-08-19T01:21:10.346Z,100244
2017-08-19T01:22:11.254Z,100246
2017-08-19T01:23:10.671Z,100238
2017-08-19T01:24:09.706Z,100240
2017-08-19T01:25:10.392Z,100245
2017-08-19T01:26:10.498Z,100245
2017-08-19T01:27:10.556Z,100246
2017-08-19T01:28:11.260Z,100239
2017-08-19T01:29:09.760Z,100240
2017-08-19T01:30:09.903Z,100246
2017-08-19T01:31:10.913Z,100245
2017-08-19T01:32:09.894Z,100248
2017-08-19T01:33:09.940Z,100244
2017-08-19T01:34:09.964Z,100242
2017-08-19T01:35:10.957Z,100245
2017-08-19T01:36:11.903Z,100245
2017-08-19T01:37:10.093Z,100246
2017-08-19T01:38:10.196Z,100244
2017-08-19T01:39:11.826Z,100242
2017-08-19T01:40:10.243Z,100244
2017-08-19T01:41:10.237Z,100236
2017-08-19T01:42:12.393Z,100246
2017-08-19T01:43:12.115Z,100243
2017-08-19T01:44:11.486Z,100242
2017-08-19T01:45:11.659Z,100241
2017-08-19T01:46:10.702Z,100238
2017-08-19T01:47:11.648Z,100243
2017-08-19T01:48:12.124Z,100242
2017-08-19T01:49:11.852Z,100243
2017-08-19T01:50:10.885Z,100240
2017-08-19T01:51:10.920Z,100240
2017-08-19T01:52:11.941Z,100244
2017-08-19T01:53:11.031Z,100244
2017-08-19T01:54:12.896Z,100244
2017-08-19T01:55:11.113Z,100243
2017-08-19T01:56:13.004Z,100240
2017-08-19T01:57:12.318Z,100240
2017-08-19T01:58:12.409Z,100243
2017-08-19T01:59:11.346Z,100240
2017-08-19T02:00:11.353Z,100241
2017-08-19T02:01:11.242Z,100240
2017-08-19T02:02:11.253Z,100240
2017-08-19T02:03:11.429Z,100238
2017-08-19T02:04:11.402Z,100242
2017-08-19T02:05:12.499Z,100238
2017-08-19T02:06:11.445Z,100238
2017-08-19T02:07:11.585Z,100240
2017-08-19T02:08:12.515Z,100242
2017-08-19T02:09:13.237Z,100234
2017-08-19T02:10:13.264Z,100237
2017-08-19T02:11:12.718Z,100236
2017-08-19T02:12:11.762Z,100244
2017-08-19T02:13:12.750Z,100243
2017-08-19T02:14:13.434Z,100245
2017-08-19T02:15:11.941Z,100245
2017-08-19T02:16:13.533Z,100241
2017-08-19T02:17:13.015Z,100241
2017-08-19T02:18:13.708Z,100241
2017-08-19T02:19:13.096Z,100235
2017-08-19T02:20:12.288Z,100242
2017-08-19T02:21:13.966Z,100243
2017-08-19T02:22:13.929Z,100238
2017-08-19T02:23:13.281Z,100236
2017-08-19T02:24:13.285Z,100236
2017-08-19T02:25:13.351Z,100235
2017-08-19T02:26:13.967Z,100239
2017-08-19T02:27:12.345Z,100237
2017-08-19T02:28:12.309Z,100234
2017-08-19T02:29:12.480Z,100234
2017-08-19T02:30:13.364Z,100239
2017-08-19T02:31:14.184Z,100228
2017-08-19T02:32:12.538Z,100233
2017-08-19T02:33:12.609Z,100234
2017-08-19T02:34:14.493Z,100231
2017-08-19T02:35:13.768Z,100237
2017-08-19T02:36:12.708Z,100237
2017-08-19T02:37:14.439Z,100236
2017-08-19T02:38:12.866Z,100232
2017-08-19T02:39:14.711Z,100230
2017-08-19T02:40:13.904Z,100233
2017-08-19T02:41:13.075Z,100235
2017-08-19T02:42:14.798Z,100231
2017-08-19T02:43:13.187Z,100232
2017-08-19T02:44:13.198Z,100233
2017-08-19T02:45:14.833Z,100229
2017-08-19T02:46:13.264Z,100230
2017-08-19T02:47:14.293Z,100235
2017-08-19T02:48:14.949Z,100230
2017-08-19T02:49:13.283Z,100233
2017-08-19T02:50:13.422Z,100241
2017-08-19T02:51:15.089Z,100235
2017-08-19T02:52:13.476Z,100233
2017-08-19T02:53:13.442Z,100235
2017-08-19T02:54:13.458Z,100231
2017-08-19T02:55:14.480Z,100232
2017-08-19T02:56:14.548Z,100233
2017-08-19T02:57:14.619Z,100226
2017-08-19T02:58:13.826Z,100233
2017-08-19T02:59:14.679Z,100232
2017-08-19T03:00:15.490Z,100232
2017-08-19T03:01:14.872Z,100236
2017-08-19T03:02:15.646Z,100234
2017-08-19T03:03:15.080Z,100238
2017-08-19T03:04:14.198Z,100236
2017-08-19T03:05:15.253Z,100240
2017-08-19T03:06:14.384Z,100240
2017-08-19T03:07:14.546Z,100240
2017-08-19T03:08:14.493Z,100240
2017-08-19T03:09:14.547Z,100245
2017-08-19T03:10:15.622Z,100246
2017-08-19T03:11:14.567Z,100249
2017-08-19T03:12:14.570Z,100248
2017-08-19T03:13:14.613Z,100246
2017-08-19T03:14:14.668Z,100243
2017-08-19T03:15:14.728Z,100251
2017-08-19T03:16:16.488Z,100237
2017-08-19T03:17:14.967Z,100238
2017-08-19T03:18:16.001Z,100240
2017-08-19T03:19:16.766Z,100238
2017-08-19T03:20:16.006Z,100237
2017-08-19T03:21:15.096Z,100236
2017-08-19T03:22:15.269Z,100239
2017-08-19T03:23:15.260Z,100244
2017-08-19T03:24:16.324Z,100238
2017-08-19T03:25:16.335Z,100236
2017-08-19T03:26:16.962Z,100240
2017-08-19T03:27:15.426Z,100237
2017-08-19T03:28:15.406Z,100243
2017-08-19T03:29:16.623Z,100238
2017-08-19T03:30:17.337Z,100240
2017-08-19T03:31:16.526Z,100242
2017-08-19T03:32:17.240Z,100244
2017-08-19T03:33:15.612Z,100242
2017-08-19T03:34:15.789Z,100238
2017-08-19T03:35:15.789Z,100240
2017-08-19T03:36:17.480Z,100248
2017-08-19T03:37:15.984Z,100245
2017-08-19T03:38:17.620Z,100253
2017-08-19T03:39:15.987Z,100249
2017-08-19T03:40:17.072Z,100244
2017-08-19T03:41:17.144Z,100248
2017-08-19T03:42:17.840Z,100251
2017-08-19T03:43:16.303Z,100252
2017-08-19T03:44:16.313Z,100254
2017-08-19T03:45:18.180Z,100253
2017-08-19T03:46:16.494Z,100250
2017-08-19T03:47:16.666Z,100254
2017-08-19T03:48:16.742Z,100250
2017-08-19T03:49:17.803Z,100252
2017-08-19T03:50:17.720Z,100252
2017-08-19T03:51:18.530Z,100254
2017-08-19T03:52:18.688Z,100253
2017-08-19T03:53:18.748Z,100255
2017-08-19T03:54:17.933Z,100258
2017-08-19T03:55:18.734Z,100260
2017-08-19T03:56:17.253Z,100262
2017-08-19T03:57:18.213Z,100263
2017-08-19T03:58:18.973Z,100259
2017-08-19T03:59:17.310Z,100257
2017-08-19T04:00:18.361Z,100251
2017-08-19T04:01:18.433Z,100255
2017-08-19T04:02:17.502Z,100254
2017-08-19T04:03:19.136Z,100260
2017-08-19T04:04:19.203Z,100256
2017-08-19T04:05:17.593Z,100256
2017-08-19T04:06:18.767Z,100256
2017-08-19T04:07:18.749Z,100262
2017-08-19T04:08:18.812Z,100262
2017-08-19T04:09:19.602Z,100261
2017-08-19T04:10:19.739Z,100264
2017-08-19T04:11:18.032Z,100261
2017-08-19T04:12:19.809Z,100265
2017-08-19T04:13:18.297Z,100257
2017-08-19T04:14:18.217Z,100263
2017-08-19T04:15:19.243Z,100263
2017-08-19T04:16:19.380Z,100253
2017-08-19T04:17:18.421Z,100262
2017-08-19T04:18:18.422Z,100261
2017-08-19T04:19:19.317Z,100263
2017-08-19T04:20:18.528Z,100262
2017-08-19T04:21:18.637Z,100253
2017-08-19T04:22:18.654Z,100263
2017-08-19T04:23:20.272Z,100257
2017-08-19T04:24:18.623Z,100259
2017-08-19T04:25:19.280Z,100261
2017-08-19T04:26:20.468Z,100262
2017-08-19T04:27:20.421Z,100262
2017-08-19T04:28:19.752Z,100262
2017-08-19T04:29:20.651Z,100258
2017-08-19T04:30:18.941Z,100261
2017-08-19T04:31:19.905Z,100262
2017-08-19T04:32:18.999Z,100255
2017-08-19T04:33:20.154Z,100264
2017-08-19T04:34:19.138Z,100265
2017-08-19T04:35:20.180Z,100265
2017-08-19T04:36:20.331Z,100269
2017-08-19T04:37:20.361Z,100273
2017-08-19T04:38:21.035Z,100264
2017-08-19T04:39:19.435Z,100268
2017-08-19T04:40:19.348Z,100266
2017-08-19T04:41:20.380Z,100264
2017-08-19T04:42:20.459Z,100264
2017-08-19T04:43:21.376Z,100271
2017-08-19T04:44:19.661Z,100263
2017-08-19T04:45:19.822Z,100265
2017-08-19T04:46:21.494Z,100266
2017-08-19T04:47:20.000Z,100268
2017-08-19T04:48:20.086Z,100271
2017-08-19T04:49:20.097Z,100270
2017-08-19T04:50:20.954Z,100272
2017-08-19T04:51:21.143Z,100274
2017-08-19T04:52:21.883Z,100274
2017-08-19T04:53:21.812Z,100275
2017-08-19T04:54:22.005Z,100281
2017-08-19T04:55:21.245Z,100279
2017-08-19T04:56:20.456Z,100275
2017-08-19T04:57:20.420Z,100279
2017-08-19T04:58:20.502Z,100283
2017-08-19T04:59:20.546Z,100283
2017-08-19T05:00:21.587Z,100276
2017-08-19T05:01:20.781Z,100281
2017-08-19T05:02:22.527Z,100285
2017-08-19T05:03:20.825Z,100284
2017-08-19T05:04:22.705Z,100284
2017-08-19T05:05:21.115Z,100281
2017-08-19T05:06:21.097Z,100280
2017-08-19T05:07:22.067Z,100287
2017-08-19T05:08:22.916Z,100287
2017-08-19T05:09:22.314Z,100285
2017-08-19T05:10:22.182Z,100280
2017-08-19T05:11:21.328Z,100283
2017-08-19T05:12:22.359Z,100283
2017-08-19T05:13:22.326Z,100287
2017-08-19T05:14:21.405Z,100282
2017-08-19T05:15:21.578Z,100287
2017-08-19T05:16:23.309Z,100286
2017-08-19T05:17:21.533Z,100288
2017-08-19T05:18:23.391Z,100289
2017-08-19T05:19:23.434Z,100287
2017-08-19T05:20:21.811Z,100288
2017-08-19T05:21:22.741Z,100289
2017-08-19T05:22:23.603Z,100286
2017-08-19T05:23:23.670Z,100287
2017-08-19T05:24:22.847Z,100294
2017-08-19T05:25:21.904Z,100290
2017-08-19T05:26:22.858Z,100292
2017-08-19T05:27:21.963Z,100292
2017-08-19T05:28:23.043Z,100293
2017-08-19T05:29:22.125Z,100291
2017-08-19T05:30:23.177Z,100288
2017-08-19T05:31:23.954Z,100287
2017-08-19T05:32:22.178Z,100294
2017-08-19T05:33:22.296Z,100299
2017-08-19T05:34:24.001Z,100296
2017-08-19T05:35:23.274Z,100295
2017-08-19T05:36:23.426Z,100289
2017-08-19T05:37:22.478Z,100298
2017-08-19T05:38:24.053Z,100307
2017-08-19T05:39:24.262Z,100303
2017-08-19T05:40:22.631Z,100307
2017-08-19T05:41:23.479Z,100304
2017-08-19T05:42:22.611Z,100308
2017-08-19T05:43:22.676Z,100301
2017-08-19T05:44:23.708Z,100306
2017-08-19T05:45:22.743Z,100302
2017-08-19T05:46:23.864Z,100307
2017-08-19T05:47:23.833Z,100302
2017-08-19T05:48:24.747Z,100305
2017-08-19T05:49:22.992Z,100301
2017-08-19T05:50:24.019Z,100293
2017-08-19T05:51:24.163Z,100304
2017-08-19T05:52:23.218Z,100307
2017-08-19T05:53:23.183Z,100301
2017-08-19T05:54:23.235Z,100306
2017-08-19T05:55:25.054Z,100310
2017-08-19T05:56:25.081Z,100311
2017-08-19T05:57:23.285Z,100310
2017-08-19T05:58:23.347Z,100309
2017-08-19T05:59:23.418Z,100310
2017-08-19T06:00:25.286Z,100313
2017-08-19T06:01:23.548Z,100304
2017-08-19T06:02:23.671Z,100315
2017-08-19T06:03:23.754Z,100321
2017-08-19T06:04:24.735Z,100319
2017-08-19T06:05:23.846Z,100317
2017-08-19T06:06:23.858Z,100310
2017-08-19T06:07:25.799Z,100315
2017-08-19T06:08:23.907Z,100319
2017-08-19T06:09:24.002Z,100311
2017-08-19T06:10:25.792Z,100316
2017-08-19T06:11:24.077Z,100310
2017-08-19T06:12:24.281Z,100306
2017-08-19T06:13:24.505Z,100309
2017-08-19T06:14:24.407Z,100304
2017-08-19T06:15:26.111Z,100313
2017-08-19T06:16:25.444Z,100311
2017-08-19T06:17:26.266Z,100302
2017-08-19T06:18:26.354Z,100302
2017-08-19T06:19:25.762Z,100291
2017-08-19T06:20:25.618Z,100298
2017-08-19T06:21:24.794Z,100297
2017-08-19T06:22:24.873Z,100301
2017-08-19T06:23:24.900Z,100301
2017-08-19T06:24:25.874Z,100291
2017-08-19T06:25:26.652Z,100293
2017-08-19T06:26:24.843Z,100297
2017-08-19T06:27:25.863Z,100288
2017-08-19T06:28:25.877Z,100297
2017-08-19T06:29:25.900Z,100296
2017-08-19T06:30:26.814Z,100303
2017-08-19T06:31:25.363Z,100289
2017-08-19T06:32:26.945Z,100294
2017-08-19T06:33:25.233Z,100290
2017-08-19T06:34:26.390Z,100283
2017-08-19T06:35:25.451Z,100293
2017-08-19T06:36:26.336Z,100297
2017-08-19T06:37:25.712Z,100294
2017-08-19T06:38:25.606Z,100290
2017-08-19T06:39:25.616Z,100290
2017-08-19T06:40:25.613Z,100300
2017-08-19T06:41:27.326Z,100297
2017-08-19T06:42:26.640Z,100303
2017-08-19T06:43:25.999Z,100304
2017-08-19T06:44:27.506Z,100300
2017-08-19T06:45:25.887Z,100304
2017-08-19T06:46:25.940Z,100306
2017-08-19T06:47:27.106Z,100310
2017-08-19T06:48:26.135Z,100307
2017-08-19T06:49:26.316Z,100308
2017-08-19T06:50:26.210Z,100307
2017-08-19T06:51:26.253Z,100305
2017-08-19T06:52:27.292Z,100307
2017-08-19T06:53:26.484Z,100305
2017-08-19T06:54:26.454Z,100308
2017-08-19T06:55:27.810Z,100306
2017-08-19T06:56:27.599Z,100301
2017-08-19T06:57:28.353Z,100300
2017-08-19T06:58:26.711Z,100305
2017-08-19T06:59:26.773Z,100318
2017-08-19T07:00:26.879Z,100308
2017-08-19T07:01:28.677Z,100314
2017-08-19T07:02:26.995Z,100312
2017-08-19T07:03:27.056Z,100313
2017-08-19T07:04:28.691Z,100311
2017-08-19T07:05:27.135Z,100315
2017-08-19T07:06:27.214Z,100311
2017-08-19T07:07:27.329Z,100306
2017-08-19T07:08:29.019Z,100301
2017-08-19T07:09:28.408Z,100314
2017-08-19T07:10:28.314Z,100313
2017-08-19T07:11:28.428Z,100311
2017-08-19T07:12:27.365Z,100315
2017-08-19T07:13:27.440Z,100306
2017-08-19T07:14:27.507Z,100308
2017-08-19T07:15:27.656Z,100309
2017-08-19T07:16:28.609Z,100315
2017-08-19T07:17:29.399Z,100310
2017-08-19T07:18:28.781Z,100310
2017-08-19T07:19:27.817Z,100322
2017-08-19T07:20:27.871Z,100319
2017-08-19T07:21:28.039Z,100310
2017-08-19T07:22:28.043Z,100315
2017-08-19T07:23:29.060Z,100316
2017-08-19T07:24:28.108Z,100317
2017-08-19T07:25:28.112Z,100329
2017-08-19T07:26:28.136Z,100319
2017-08-19T07:27:28.261Z,100311
2017-08-19T07:28:29.186Z,100316
2017-08-19T07:29:29.365Z,100319
2017-08-19T07:30:28.292Z,100318
2017-08-19T07:31:28.422Z,100318
2017-08-19T07:32:30.118Z,100324
2017-08-19T07:33:29.358Z,100319
2017-08-19T07:34:28.473Z,100315
2017-08-19T07:35:29.444Z,100316
2017-08-19T07:36:28.546Z,100316
2017-08-19T07:37:29.682Z,100311
2017-08-19T07:38:30.429Z,100312
2017-08-19T07:39:28.730Z,100319
2017-08-19T07:40:30.519Z,100323
2017-08-19T07:41:28.838Z,100324
2017-08-19T07:42:28.821Z,100323
2017-08-19T07:43:29.819Z,100316
2017-08-19T07:44:28.998Z,100322
2017-08-19T07:45:29.899Z,100324
2017-08-19T07:46:28.950Z,100320
2017-08-19T07:47:29.056Z,100325
2017-08-19T07:48:29.087Z,100315
2017-08-19T07:49:29.191Z,100323
2017-08-19T07:50:30.843Z,100316
2017-08-19T07:51:30.896Z,100318
2017-08-19T07:52:30.965Z,100321
2017-08-19T07:53:30.305Z,100317
2017-08-19T07:54:29.520Z,100326
2017-08-19T07:55:31.251Z,100324
2017-08-19T07:56:29.613Z,100326
2017-08-19T07:57:29.698Z,100333
2017-08-19T07:58:29.691Z,100326
2017-08-19T07:59:29.828Z,100331
2017-08-19T08:00:30.062Z,100324
2017-08-19T08:01:29.881Z,100331
2017-08-19T08:02:30.959Z,100323
2017-08-19T08:03:30.000Z,100334
2017-08-19T08:04:30.931Z,100328
2017-08-19T08:05:31.810Z,100334
2017-08-19T08:06:31.322Z,100331
2017-08-19T08:07:30.135Z,100334
2017-08-19T08:08:30.257Z,100328
2017-08-19T08:09:30.306Z,100330
2017-08-19T08:10:31.239Z,100339
2017-08-19T08:11:30.362Z,100343
2017-08-19T08:12:32.316Z,100340
2017-08-19T08:13:30.549Z,100346
2017-08-19T08:14:30.589Z,100347
2017-08-19T08:15:32.332Z,100344
2017-08-19T08:16:31.563Z,100350
2017-08-19T08:17:32.434Z,100340
2017-08-19T08:18:30.822Z,100344
2017-08-19T08:19:31.773Z,100343
2017-08-19T08:20:30.830Z,100347
2017-08-19T08:21:30.728Z,100349
2017-08-19T08:22:30.846Z,100349
2017-08-19T08:23:31.765Z,100349
2017-08-19T08:24:31.969Z,100348
2017-08-19T08:25:31.940Z,100357
2017-08-19T08:26:31.048Z,100356
2017-08-19T08:27:32.711Z,100365
2017-08-19T08:28:31.042Z,100365
2017-08-19T08:29:32.171Z,100361
2017-08-19T08:30:31.425Z,100358
2017-08-19T08:31:31.312Z,100355
2017-08-19T08:32:32.304Z,100351
2017-08-19T08:33:32.182Z,100359
2017-08-19T08:34:32.330Z,100355
2017-08-19T08:35:32.211Z,100359
2017-08-19T08:36:31.678Z,100361
2017-08-19T08:37:33.047Z,100365
2017-08-19T08:38:33.205Z,100363
2017-08-19T08:39:32.548Z,100368
2017-08-19T08:40:32.584Z,100359
2017-08-19T08:41:33.263Z,100371
2017-08-19T08:42:31.801Z,100361
2017-08-19T08:43:32.575Z,100374
2017-08-19T08:44:33.361Z,100376
2017-08-19T08:45:31.714Z,100375
2017-08-19T08:46:31.876Z,100378
2017-08-19T08:47:31.791Z,100363
2017-08-19T08:48:32.034Z,100376
2017-08-19T08:49:33.710Z,100366
2017-08-19T08:50:32.913Z,100371
2017-08-19T08:51:32.998Z,100369
2017-08-19T08:52:32.088Z,100367
2017-08-19T08:53:33.856Z,100371
2017-08-19T08:54:32.475Z,100373
2017-08-19T08:55:32.288Z,100383
2017-08-19T08:56:32.467Z,100371
2017-08-19T08:57:33.457Z,100372
2017-08-19T08:58:34.157Z,100370
2017-08-19T08:59:34.338Z,100368
2017-08-19T09:00:32.747Z,100372
2017-08-19T09:01:32.678Z,100374
2017-08-19T09:02:33.728Z,100376
2017-08-19T09:03:32.834Z,100372
2017-08-19T09:04:34.479Z,100379
2017-08-19T09:05:33.175Z,100384
2017-08-19T09:06:34.648Z,100375
2017-08-19T09:07:33.116Z,100380
2017-08-19T09:08:33.206Z,100377
2017-08-19T09:09:33.115Z,100373
2017-08-19T09:10:34.900Z,100373
2017-08-19T09:11:35.164Z,100375
2017-08-19T09:12:33.448Z,100371
2017-08-19T09:13:34.444Z,100377
2017-08-19T09:14:35.161Z,100373
2017-08-19T09:15:33.474Z,100380
2017-08-19T09:16:34.553Z,100373
2017-08-19T09:17:34.733Z,100370
2017-08-19T09:18:35.273Z,100371
2017-08-19T09:19:33.506Z,100377
2017-08-19T09:20:33.624Z,100369
2017-08-19T09:21:33.617Z,100372
2017-08-19T09:22:33.773Z,100376
2017-08-19T09:23:34.023Z,100372
2017-08-19T09:24:33.786Z,100373
2017-08-19T09:25:33.975Z,100372
2017-08-19T09:26:35.557Z,100370
2017-08-19T09:27:33.953Z,100378
2017-08-19T09:28:35.712Z,100375
2017-08-19T09:29:35.922Z,100375
2017-08-19T09:30:34.132Z,100379
2017-08-19T09:31:34.322Z,100375
2017-08-19T09:32:34.369Z,100378
2017-08-19T09:33:35.303Z,100371
2017-08-19T09:34:34.527Z,100373
2017-08-19T09:35:35.674Z,100356
2017-08-19T09:36:34.561Z,100371
2017-08-19T09:37:35.568Z,100369
2017-08-19T09:38:35.484Z,100371
2017-08-19T09:39:34.699Z,100365
2017-08-19T09:40:35.729Z,100366
2017-08-19T09:41:36.557Z,100368
2017-08-19T09:42:36.458Z,100366
2017-08-19T09:43:36.526Z,100371
2017-08-19T09:44:34.893Z,100372
2017-08-19T09:45:36.584Z,100368
2017-08-19T09:46:35.924Z,100371
2017-08-19T09:47:36.274Z,100371
2017-08-19T09:48:35.107Z,100379
2017-08-19T09:49:36.917Z,100377
2017-08-19T09:50:36.887Z,100368
2017-08-19T09:51:36.968Z,100374
2017-08-19T09:52:35.478Z,100383
2017-08-19T09:53:35.694Z,100375
2017-08-19T09:54:36.414Z,100377
2017-08-19T09:55:35.522Z,100375
2017-08-19T09:56:36.500Z,100381
2017-08-19T09:57:35.612Z,100381
2017-08-19T09:58:35.623Z,100379
2017-08-19T09:59:37.658Z,100395
2017-08-19T10:00:36.717Z,100378
2017-08-19T10:01:35.817Z,100390
2017-08-19T10:02:37.663Z,100387
2017-08-19T10:03:37.033Z,100387
2017-08-19T10:04:36.039Z,100396
2017-08-19T10:05:36.372Z,100387
2017-08-19T10:06:37.985Z,100384
2017-08-19T10:07:37.230Z,100385
2017-08-19T10:08:38.122Z,100395
2017-08-19T10:09:36.452Z,100393
2017-08-19T10:10:38.125Z,100399
2017-08-19T10:11:36.727Z,100395
2017-08-19T10:12:36.670Z,100398
2017-08-19T10:13:36.749Z,100392
2017-08-19T10:14:37.780Z,100396
2017-08-19T10:15:38.440Z,100400
2017-08-19T10:16:37.935Z,100394
2017-08-19T10:17:36.903Z,100396
2017-08-19T10:18:37.777Z,100392
2017-08-19T10:19:36.977Z,100395
2017-08-19T10:20:38.554Z,100402
2017-08-19T10:21:36.917Z,100406
2017-08-19T10:22:38.864Z,100408
2017-08-19T10:23:38.670Z,100403
2017-08-19T10:24:37.149Z,100404
2017-08-19T10:25:38.024Z,100407
2017-08-19T10:26:37.085Z,100398
2017-08-19T10:27:37.126Z,100409
2017-08-19T10:28:37.300Z,100405
2017-08-19T10:29:37.129Z,100410
2017-08-19T10:30:38.985Z,100410
2017-08-19T10:31:38.936Z,100402
2017-08-19T10:32:38.287Z,100410
2017-08-19T10:33:38.300Z,100405
2017-08-19T10:34:39.296Z,100403
2017-08-19T10:35:37.424Z,100411
2017-08-19T10:36:39.266Z,100411
2017-08-19T10:37:37.644Z,100411
2017-08-19T10:38:37.715Z,100408
2017-08-19T10:39:38.797Z,100404
2017-08-19T10:40:38.070Z,100407
2017-08-19T10:41:38.889Z,100410
2017-08-19T10:42:37.918Z,100406
2017-08-19T10:43:37.920Z,100405
2017-08-19T10:45:39.737Z,100411
2017-08-19T10:46:38.232Z,100409
2017-08-19T10:47:39.213Z,100408
2017-08-19T10:48:38.151Z,100412
2017-08-19T10:49:38.300Z,100414
2017-08-19T10:50:39.911Z,100408
2017-08-19T10:51:39.939Z,100415
2017-08-19T10:52:38.591Z,100420
2017-08-19T10:53:39.335Z,100418
2017-08-19T10:54:38.560Z,100417
2017-08-19T10:55:39.522Z,100410
2017-08-19T10:56:39.738Z,100417
2017-08-19T10:57:38.845Z,100413
2017-08-19T10:58:38.965Z,100417
2017-08-19T10:59:40.499Z,100418
2017-08-19T11:00:39.937Z,100421
2017-08-19T11:01:39.010Z,100414
2017-08-19T11:02:38.924Z,100417
2017-08-19T11:03:40.694Z,100411
2017-08-19T11:04:39.232Z,100409
2017-08-19T11:05:40.918Z,100414
2017-08-19T11:06:40.108Z,100407
2017-08-19T11:07:40.281Z,100420
2017-08-19T11:08:40.297Z,100421
2017-08-19T11:09:39.377Z,100419
2017-08-19T11:10:40.561Z,100415
2017-08-19T11:11:41.063Z,100419
2017-08-19T11:12:39.412Z,100409
2017-08-19T11:13:39.414Z,100412
2017-08-19T11:14:40.465Z,100417
2017-08-19T11:15:41.389Z,100418
2017-08-19T11:16:39.849Z,100420
2017-08-19T11:17:41.499Z,100426
2017-08-19T11:18:40.902Z,100425
2017-08-19T11:19:39.826Z,100426
2017-08-19T11:20:41.674Z,100432
2017-08-19T11:21:41.021Z,100426
2017-08-19T11:22:40.242Z,100426
2017-08-19T11:23:40.036Z,100431
2017-08-19T11:24:41.192Z,100429
2017-08-19T11:25:41.295Z,100430
2017-08-19T11:26:41.306Z,100432
2017-08-19T11:27:41.242Z,100437
2017-08-19T11:28:40.586Z,100435
2017-08-19T11:29:42.063Z,100426
2017-08-19T11:30:40.553Z,100431
2017-08-19T11:31:41.621Z,100430
2017-08-19T11:32:40.574Z,100434
2017-08-19T11:33:40.773Z,100438
2017-08-19T11:34:40.883Z,100435
2017-08-19T11:35:42.549Z,100431
2017-08-19T11:36:40.962Z,100428
2017-08-19T11:37:40.932Z,100426
2017-08-19T11:38:41.004Z,100428
2017-08-19T11:39:42.098Z,100432
2017-08-19T11:40:42.947Z,100432
2017-08-19T11:41:41.231Z,100433
2017-08-19T11:42:43.003Z,100432
2017-08-19T11:43:41.281Z,100433
2017-08-19T11:44:42.389Z,100434
2017-08-19T11:45:41.410Z,100437
2017-08-19T11:46:41.757Z,100436
2017-08-19T11:47:43.349Z,100426
2017-08-19T11:48:43.409Z,100432
2017-08-19T11:49:43.461Z,100430
2017-08-19T11:50:42.714Z,100430
2017-08-19T11:51:43.450Z,100432
2017-08-19T11:52:41.826Z,100437
2017-08-19T11:53:42.003Z,100446
2017-08-19T11:54:42.858Z,100438
2017-08-19T11:55:41.919Z,100441
2017-08-19T11:56:43.786Z,100445
2017-08-19T11:57:42.129Z,100441
2017-08-19T11:58:43.023Z,100444
2017-08-19T11:59:42.105Z,100445
2017-08-19T12:00:42.207Z,100451
2017-08-19T12:01:43.183Z,100445
2017-08-19T12:02:42.387Z,100444
2017-08-19T12:03:42.406Z,100443
2017-08-19T12:04:43.272Z,100448
2017-08-19T12:05:44.136Z,100456
2017-08-19T12:06:44.034Z,100455
2017-08-19T12:07:42.433Z,100450
2017-08-19T12:08:42.459Z,100456
2017-08-19T12:09:44.321Z,100455
2017-08-19T12:10:43.696Z,100463
2017-08-19T12:11:44.408Z,100454
2017-08-19T12:12:42.878Z,100453
2017-08-19T12:13:44.472Z,100456
2017-08-19T12:14:43.893Z,100451
2017-08-19T12:15:42.862Z,100454
2017-08-19T12:16:42.949Z,100460
2017-08-19T12:17:44.038Z,100455
2017-08-19T12:18:44.708Z,100457
2017-08-19T12:19:43.021Z,100456
2017-08-19T12:20:43.200Z,100452
2017-08-19T12:21:43.111Z,100452
2017-08-19T12:22:43.190Z,100469
2017-08-19T12:23:44.351Z,100460
2017-08-19T12:24:43.305Z,100453
2017-08-19T12:25:43.382Z,100455
2017-08-19T12:26:43.423Z,100455
2017-08-19T12:27:45.100Z,100458
2017-08-19T12:28:44.501Z,100455
2017-08-19T12:29:43.454Z,100451